Hakuhomaru — JJ4011 — position and weather

sailwx.info

Track history (hours):
 
Tides and Currents Weather Stations Pressure Air Temp Water Temp Dewpoint Dewpoint Depression Visibility Wind Speed Wind Dir Waves Ship Positions

Hakuhomaru

Last reported at 2017-Jan-16 06:33 UTC. Time now 2017-Jan-17 17:19 UTC.
Position N 34°41' E 135°12'.

Length 38 m; draft 3.3 m.

Type: Tug. MMSI: 431401584.

Date/timePositionNaut miles runAvg speedWind from/ knotsBaromVisibWave heightAir tempDewpointWater temp
2017-Jan-16 06:33N 34°41' E 135°12'0 0.0
2017-Jan-16 05:33N 34°41' E 135°12'3 2.6
2017-Jan-16 04:33N 34°42' E 135°15'2 2.1
2017-Jan-16 03:33N 34°42' E 135°17'2 1.6
2017-Jan-16 02:33N 34°40' E 135°18'4 4.5
2017-Jan-16 01:33N 34°41' E 135°12'0 0.1
2017-Jan-16 00:33N 34°41' E 135°12'0 0.0
2017-Jan-15 23:33N 34°41' E 135°12'0 0.0
2017-Jan-15 05:33N 34°41' E 135°12'0 0.0
2017-Jan-15 04:33N 34°41' E 135°12'0 0.0
2017-Jan-15 03:33N 34°41' E 135°12'0 0.0
2017-Jan-15 02:33N 34°41' E 135°12'0 0.0
2017-Jan-15 01:33N 34°41' E 135°12'0 0.0
2017-Jan-15 00:33N 34°41' E 135°12'1 0.6
2017-Jan-14 23:32N 34°41' E 135°13'2 1.6
2017-Jan-14 22:33N 34°41' E 135°15'2 2.3
2017-Jan-14 21:33N 34°40' E 135°12'0 0.1
2017-Jan-14 20:33N 34°41' E 135°12'  
2017-Jan-12 08:33N 34°41' E 135°12'4 4.5
2017-Jan-12 07:33N 34°41' E 135°18'5 4.5
2017-Jan-12 06:33N 34°41' E 135°12'0 0.1
2017-Jan-12 05:33N 34°41' E 135°12'0 0.0
2017-Jan-12 04:33N 34°41' E 135°12'0 0.0
2017-Jan-12 03:33N 34°41' E 135°12'0 0.0
2017-Jan-12 02:33N 34°41' E 135°12'2 2.3
2017-Jan-12 01:33N 34°39' E 135°15'1 1.0
2017-Jan-12 00:33N 34°39' E 135°15'3 3.2
2017-Jan-11 23:33N 34°41' E 135°12'0 0.0
2017-Jan-10 05:33N 34°41' E 135°12'0 0.0
2017-Jan-10 04:33N 34°41' E 135°12'0 0.0
2017-Jan-10 03:33N 34°41' E 135°12'0 0.0
2017-Jan-10 02:33N 34°41' E 135°12'0 0.0
2017-Jan-10 01:33N 34°41' E 135°12'0 0.0
2017-Jan-10 00:33N 34°41' E 135°12'  
Track history (hours):
 
Tides and Currents Weather Stations Pressure Air Temp Water Temp Dewpoint Dewpoint Depression Visibility Wind Speed Wind Dir Waves Ship Positions

Hakuhomaru

Last reported at 2017-Jan-16 06:33 UTC. Time now 2017-Jan-17 17:19 UTC.
Position N 34°41' E 135°12'.

Length 38 m; draft 3.3 m.

Type: Tug. MMSI: 431401584.

Date/timePositionNaut miles runAvg speedWind from/ knotsBaromVisibWave heightAir tempDewpointWater temp
2017-Jan-16 06:33N 34°41' E 135°12'0 0.0
2017-Jan-16 05:33N 34°41' E 135°12'3 2.6
2017-Jan-16 04:33N 34°42' E 135°15'2 2.1
2017-Jan-16 03:33N 34°42' E 135°17'2 1.6
2017-Jan-16 02:33N 34°40' E 135°18'4 4.5
2017-Jan-16 01:33N 34°41' E 135°12'0 0.1
2017-Jan-16 00:33N 34°41' E 135°12'0 0.0
2017-Jan-15 23:33N 34°41' E 135°12'0 0.0
2017-Jan-15 05:33N 34°41' E 135°12'0 0.0
2017-Jan-15 04:33N 34°41' E 135°12'0 0.0
2017-Jan-15 03:33N 34°41' E 135°12'0 0.0
2017-Jan-15 02:33N 34°41' E 135°12'0 0.0
2017-Jan-15 01:33N 34°41' E 135°12'0 0.0
2017-Jan-15 00:33N 34°41' E 135°12'1 0.6
2017-Jan-14 23:32N 34°41' E 135°13'2 1.6
2017-Jan-14 22:33N 34°41' E 135°15'2 2.3
2017-Jan-14 21:33N 34°40' E 135°12'0 0.1
2017-Jan-14 20:33N 34°41' E 135°12'  
2017-Jan-12 08:33N 34°41' E 135°12'4 4.5
2017-Jan-12 07:33N 34°41' E 135°18'5 4.5
2017-Jan-12 06:33N 34°41' E 135°12'0 0.1
2017-Jan-12 05:33N 34°41' E 135°12'0 0.0
2017-Jan-12 04:33N 34°41' E 135°12'0 0.0
2017-Jan-12 03:33N 34°41' E 135°12'0 0.0
2017-Jan-12 02:33N 34°41' E 135°12'2 2.3
2017-Jan-12 01:33N 34°39' E 135°15'1 1.0
2017-Jan-12 00:33N 34°39' E 135°15'3 3.2
2017-Jan-11 23:33N 34°41' E 135°12'0 0.0
2017-Jan-10 05:33N 34°41' E 135°12'0 0.0
2017-Jan-10 04:33N 34°41' E 135°12'0 0.0
2017-Jan-10 03:33N 34°41' E 135°12'0 0.0
2017-Jan-10 02:33N 34°41' E 135°12'0 0.0
2017-Jan-10 01:33N 34°41' E 135°12'0 0.0
2017-Jan-10 00:33N 34°41' E 135°12'  

Dump ship's entire track history